Time;durP1;ratioP1;P1;durP2;ratioP2;P2;SDS_P1;SDS_P2;PMS_P1;PMS_P2;Temp;Humidity;BMP_temperature;BMP_pressure;BME280_temperature;BME280_humidity;BME280_pressure;Samples;Min_cycle;Max_cycle;Signal;HPM_P1;HPM_P2
2023/11/27 00:00:26;;;;;;;1999.90;999.90;;;;;;;;;;5062070;28;20063;-93
2023/11/27 00:02:53;;;;;;;1999.90;999.90;;;;;;;;;;5065046;28;20046;-94
2023/11/27 00:05:20;;;;;;;1999.90;999.90;;;;;;;;;;5063668;28;20504;-92
2023/11/27 00:07:47;;;;;;;1999.90;999.90;;;;;;;;;;5055980;28;20490;-93
2023/11/27 00:10:13;;;;;;;1999.90;999.90;;;;;;;;;;5060785;28;20045;-94
2023/11/27 00:12:40;;;;;;;1999.90;999.90;;;;;;;;;;5057780;28;20132;-92
2023/11/27 00:15:09;;;;;;;1999.90;999.90;;;;;;;;;;5059133;28;20092;-94
2023/11/27 00:17:38;;;;;;;1999.90;999.90;;;;;;;;;;5062157;28;20048;-92
2023/11/27 00:20:09;;;;;;;1999.90;999.90;;;;;;;;;;5061382;28;20132;-92
2023/11/27 00:22:35;;;;;;;1999.90;999.90;;;;;;;;;;5061188;28;20131;-94
2023/11/27 00:25:02;;;;;;;1999.90;999.90;;;;;;;;;;5063882;28;20055;-92
2023/11/27 00:27:28;;;;;;;1999.90;999.90;;;;;;;;;;5065951;28;20066;-93
2023/11/27 00:29:55;;;;;;;1999.90;999.90;;;;;;;;;;5065830;28;20045;-90
2023/11/27 00:32:23;;;;;;;1999.90;999.90;;;;;;;;;;5066012;28;20066;-93
2023/11/27 00:34:50;;;;;;;1999.90;999.90;;;;;;;;;;5063564;28;20049;-91
2023/11/27 00:37:18;;;;;;;1999.90;999.90;;;;;;;;;;5065977;28;20059;-94
2023/11/27 00:39:44;;;;;;;1999.90;999.90;;;;;;;;;;5065818;28;20586;-93
2023/11/27 00:42:11;;;;;;;1999.90;999.90;;;;;;;;;;5064733;28;20151;-88
2023/11/27 00:44:39;;;;;;;1999.90;999.90;;;;;;;;;;5064577;28;20305;-93
2023/11/27 00:47:05;;;;;;;1999.90;999.90;;;;;;;;;;5064553;28;20075;-91
2023/11/27 00:49:33;;;;;;;1999.90;999.90;;;;;;;;;;5067414;28;20128;-92
2023/11/27 00:52:00;;;;;;;1999.90;999.90;;;;;;;;;;5062720;28;20066;-92
2023/11/27 00:54:26;;;;;;;1999.90;999.90;;;;;;;;;;5066429;28;20093;-90
2023/11/27 00:56:53;;;;;;;1999.90;999.90;;;;;;;;;;5064655;28;20054;-92
2023/11/27 00:59:20;;;;;;;1999.90;999.90;;;;;;;;;;5062500;28;20056;-91
2023/11/27 01:01:47;;;;;;;1999.90;999.90;;;;;;;;;;5065145;28;20048;-90
2023/11/27 01:04:13;;;;;;;1999.90;999.90;;;;;;;;;;5067123;28;20486;-95
2023/11/27 01:06:42;;;;;;;1999.90;999.90;;;;;;;;;;5065667;28;20040;-91
2023/11/27 01:09:09;;;;;;;1999.90;999.90;;;;;;;;;;5064153;28;20059;-90
2023/11/27 01:11:38;;;;;;;1999.90;999.90;;;;;;;;;;5065479;28;20080;-92
2023/11/27 01:14:04;;;;;;;1999.90;999.90;;;;;;;;;;5065699;28;20062;-92
2023/11/27 01:16:31;;;;;;;1999.90;999.90;;;;;;;;;;5061158;28;20056;-92
2023/11/27 01:18:57;;;;;;;1999.90;999.90;;;;;;;;;;5062970;28;20094;-94
2023/11/27 01:21:24;;;;;;;1999.90;999.90;;;;;;;;;;5063872;28;20059;-90
2023/11/27 01:23:52;;;;;;;1999.90;999.90;;;;;;;;;;5063514;28;20458;-93
2023/11/27 01:26:18;;;;;;;1999.90;999.90;;;;;;;;;;5069033;28;20409;-91
2023/11/27 01:28:45;;;;;;;1999.90;999.90;;;;;;;;;;5064725;28;20128;-91
2023/11/27 01:31:12;;;;;;;1999.90;999.90;;;;;;;;;;5063523;28;20053;-93
2023/11/27 01:33:39;;;;;;;1999.90;999.90;;;;;;;;;;5060416;28;20056;-90
2023/11/27 01:36:06;;;;;;;1999.90;999.90;;;;;;;;;;5062283;28;20052;-91
2023/11/27 01:38:33;;;;;;;1999.90;999.90;;;;;;;;;;5061972;28;20041;-90
2023/11/27 01:41:01;;;;;;;1999.90;999.90;;;;;;;;;;5063980;28;20045;-91
2023/11/27 01:43:27;;;;;;;1999.90;999.90;;;;;;;;;;5062633;28;20139;-92
2023/11/27 01:46:05;;;;;;;1999.90;999.90;;;;;;;;;;5061886;28;20453;-93
2023/11/27 01:48:31;;;;;;;1999.90;999.90;;;;;;;;;;5061387;28;20044;-90
2023/11/27 01:50:58;;;;;;;1999.90;999.90;;;;;;;;;;5062860;28;20056;-92
2023/11/27 01:53:25;;;;;;;1999.90;999.90;;;;;;;;;;5062295;28;20476;-91
2023/11/27 01:55:51;;;;;;;1999.90;999.90;;;;;;;;;;5064674;28;20040;-91
2023/11/27 01:58:19;;;;;;;1999.90;999.90;;;;;;;;;;5064704;28;20049;-91
2023/11/27 02:00:46;;;;;;;1999.90;999.90;;;;;;;;;;5062353;28;20048;-89
2023/11/27 02:03:12;;;;;;;1999.90;999.90;;;;;;;;;;5061864;28;20045;-94
2023/11/27 02:05:39;;;;;;;1999.90;999.90;;;;;;;;;;5062337;28;20055;-91
2023/11/27 02:08:05;;;;;;;1999.90;999.90;;;;;;;;;;5064354;28;20133;-89
2023/11/27 02:10:32;;;;;;;1999.90;999.90;;;;;;;;;;5062265;28;20052;-92
2023/11/27 02:12:59;;;;;;;1999.90;999.90;;;;;;;;;;5059560;28;20118;-90
2023/11/27 02:15:27;;;;;;;1999.90;999.90;;;;;;;;;;5057624;28;20063;-91
2023/11/27 02:17:53;;;;;;;1999.90;999.90;;;;;;;;;;5064048;28;20206;-91
2023/11/27 02:20:20;;;;;;;1999.90;999.90;;;;;;;;;;5060693;28;20515;-90
2023/11/27 02:22:46;;;;;;;1999.90;999.90;;;;;;;;;;5057628;28;20416;-93
2023/11/27 02:25:15;;;;;;;1999.90;999.90;;;;;;;;;;5061516;28;20428;-92
2023/11/27 02:27:41;;;;;;;1999.90;999.90;;;;;;;;;;5060685;28;20040;-89
2023/11/27 02:30:09;;;;;;;1999.90;999.90;;;;;;;;;;5060314;28;20061;-91
2023/11/27 02:32:36;;;;;;;1999.90;999.90;;;;;;;;;;5059178;28;20051;-89
2023/11/27 02:35:03;;;;;;;1999.90;999.90;;;;;;;;;;5058049;28;20044;-92
2023/11/27 02:37:30;;;;;;;1999.90;999.90;;;;;;;;;;5058350;28;20045;-92
2023/11/27 02:39:56;;;;;;;1999.90;999.90;;;;;;;;;;5061306;28;20052;-91
2023/11/27 02:42:24;;;;;;;1999.90;999.90;;;;;;;;;;5059657;28;20048;-92
2023/11/27 02:44:52;;;;;;;1999.90;999.90;;;;;;;;;;5057196;28;20053;-90
2023/11/27 02:47:19;;;;;;;1999.90;999.90;;;;;;;;;;5059304;28;20052;-91
2023/11/27 02:49:45;;;;;;;1999.90;999.90;;;;;;;;;;5059874;28;20041;-92
2023/11/27 02:52:12;;;;;;;1999.90;999.90;;;;;;;;;;5063153;28;20068;-91
2023/11/27 02:54:40;;;;;;;1999.90;999.90;;;;;;;;;;5059841;28;20048;-91
2023/11/27 02:57:08;;;;;;;1999.90;999.90;;;;;;;;;;5056851;28;20049;-91
2023/11/27 02:59:36;;;;;;;1999.90;999.90;;;;;;;;;;5058182;28;20572;-91
2023/11/27 03:02:02;;;;;;;1999.90;999.90;;;;;;;;;;5059809;28;20045;-92
2023/11/27 03:04:30;;;;;;;1999.90;999.90;;;;;;;;;;5060759;28;20063;-91
2023/11/27 03:06:57;;;;;;;1999.90;999.90;;;;;;;;;;5060448;28;20045;-93
2023/11/27 03:09:23;;;;;;;1999.90;999.90;;;;;;;;;;5059419;28;20049;-91
2023/11/27 03:11:50;;;;;;;1999.90;999.90;;;;;;;;;;5058325;28;20055;-91
2023/11/27 03:14:16;;;;;;;1999.90;999.90;;;;;;;;;;5063294;28;20056;-92
2023/11/27 03:16:44;;;;;;;1999.90;999.90;;;;;;;;;;5056586;28;20152;-89
2023/11/27 03:19:11;;;;;;;1999.90;999.90;;;;;;;;;;5057001;28;20484;-92
2023/11/27 03:21:37;;;;;;;1999.90;999.90;;;;;;;;;;5060064;28;20049;-92
2023/11/27 03:24:04;;;;;;;1999.90;999.90;;;;;;;;;;5059269;28;20049;-90
2023/11/27 03:26:31;;;;;;;1999.90;999.90;;;;;;;;;;5058995;28;20489;-91
2023/11/27 03:28:57;;;;;;;1999.90;999.90;;;;;;;;;;5063680;28;20056;-92
2023/11/27 03:31:23;;;;;;;1999.90;999.90;;;;;;;;;;5061015;28;20044;-89
2023/11/27 03:33:52;;;;;;;1999.90;999.90;;;;;;;;;;5063136;28;20053;-92
2023/11/27 03:36:18;;;;;;;1999.90;999.90;;;;;;;;;;5065517;28;20076;-90
2023/11/27 03:38:46;;;;;;;1999.90;999.90;;;;;;;;;;5062235;28;20045;-91
2023/11/27 03:41:17;;;;;;;1999.90;999.90;;;;;;;;;;5063536;28;20048;-91
2023/11/27 03:43:44;;;;;;;1999.90;999.90;;;;;;;;;;5063602;28;20048;-91
2023/11/27 03:46:11;;;;;;;1999.90;999.90;;;;;;;;;;5062130;28;20409;-90
2023/11/27 03:48:37;;;;;;;1999.90;999.90;;;;;;;;;;5058551;28;20045;-91
2023/11/27 03:51:06;;;;;;;1999.90;999.90;;;;;;;;;;5061226;28;20056;-91
2023/11/27 03:53:32;;;;;;;1999.90;999.90;;;;;;;;;;5055064;28;20056;-90
2023/11/27 03:55:59;;;;;;;1999.90;999.90;;;;;;;;;;5067482;28;20048;-92
2023/11/27 03:58:26;;;;;;;1999.90;999.90;;;;;;;;;;5070217;28;20052;-90
2023/11/27 04:00:53;;;;;;;1999.90;999.90;;;;;;;;;;5064278;28;20045;-92
2023/11/27 04:03:20;;;;;;;1999.90;999.90;;;;;;;;;;5063963;28;20110;-93
2023/11/27 04:05:47;;;;;;;1999.90;999.90;;;;;;;;;;5064182;28;20041;-90
2023/11/27 04:08:15;;;;;;;1999.90;999.90;;;;;;;;;;5062218;28;20045;-91
2023/11/27 04:10:41;;;;;;;1999.90;999.90;;;;;;;;;;5065851;28;20059;-91
2023/11/27 04:13:08;;;;;;;1999.90;999.90;;;;;;;;;;5062824;28;20057;-91
2023/11/27 04:15:34;;;;;;;1999.90;999.90;;;;;;;;;;5062451;28;20052;-90
2023/11/27 04:18:01;;;;;;;1999.90;999.90;;;;;;;;;;5064003;28;20049;-90
2023/11/27 04:20:28;;;;;;;1999.90;999.90;;;;;;;;;;5064352;28;20131;-91
2023/11/27 04:22:56;;;;;;;1999.90;999.90;;;;;;;;;;5061630;28;20399;-89
2023/11/27 04:25:23;;;;;;;1999.90;999.90;;;;;;;;;;5063990;28;20048;-92
2023/11/27 04:27:50;;;;;;;1999.90;999.90;;;;;;;;;;5061575;28;20524;-92
2023/11/27 04:30:17;;;;;;;1999.90;999.90;;;;;;;;;;5067086;28;20048;-92
2023/11/27 04:32:45;;;;;;;1999.90;999.90;;;;;;;;;;5064818;28;20045;-91
2023/11/27 04:35:12;;;;;;;1999.90;999.90;;;;;;;;;;5059864;28;20143;-90
2023/11/27 04:37:39;;;;;;;1999.90;999.90;;;;;;;;;;5061664;28;20075;-91
2023/11/27 04:40:10;;;;;;;1999.90;999.90;;;;;;;;;;5057480;28;20057;-89
2023/11/27 04:42:38;;;;;;;1999.90;999.90;;;;;;;;;;5060317;28;20106;-93
2023/11/27 04:45:06;;;;;;;1999.90;999.90;;;;;;;;;;5062958;28;20048;-91
2023/11/27 04:47:33;;;;;;;1999.90;999.90;;;;;;;;;;5062759;28;20052;-90
2023/11/27 04:50:00;;;;;;;1999.90;999.90;;;;;;;;;;5067771;28;20049;-88
2023/11/27 04:52:26;;;;;;;1999.90;999.90;;;;;;;;;;5085210;28;20028;-86
2023/11/27 04:54:53;;;;;;;1999.90;999.90;;;;;;;;;;5084814;28;20021;-91
2023/11/27 04:57:21;;;;;;;1999.90;999.90;;;;;;;;;;5084110;28;20049;-88
2023/11/27 04:59:49;;;;;;;1999.90;999.90;;;;;;;;;;5086747;28;20024;-85
2023/11/27 05:02:15;;;;;;;1999.90;999.90;;;;;;;;;;5086000;28;20056;-87
2023/11/27 05:04:42;;;;;;;1999.90;999.90;;;;;;;;;;5080901;28;20572;-93
2023/11/27 05:07:08;;;;;;;1999.90;999.90;;;;;;;;;;5063263;28;20048;-91
2023/11/27 05:09:37;;;;;;;1999.90;999.90;;;;;;;;;;5065365;28;20494;-92
2023/11/27 05:12:04;;;;;;;1999.90;999.90;;;;;;;;;;5059522;28;20089;-94
2023/11/27 05:14:30;;;;;;;1999.90;999.90;;;;;;;;;;5064530;28;20440;-91
2023/11/27 05:16:58;;;;;;;1999.90;999.90;;;;;;;;;;5061997;28;20049;-91
2023/11/27 05:19:25;;;;;;;1999.90;999.90;;;;;;;;;;5065695;28;20052;-92
2023/11/27 05:21:51;;;;;;;1999.90;999.90;;;;;;;;;;5064070;28;20513;-92
2023/11/27 05:24:18;;;;;;;1999.90;999.90;;;;;;;;;;5062865;28;20044;-93
2023/11/27 05:26:45;;;;;;;1999.90;999.90;;;;;;;;;;5064507;28;20049;-93
2023/11/27 05:29:12;;;;;;;1999.90;999.90;;;;;;;;;;5058527;28;20075;-91
2023/11/27 05:31:38;;;;;;;1999.90;999.90;;;;;;;;;;5059508;28;20053;-92
2023/11/27 05:34:07;;;;;;;1999.90;999.90;;;;;;;;;;5063128;28;20053;-91
2023/11/27 05:36:34;;;;;;;1999.90;999.90;;;;;;;;;;5060919;28;20103;-91
2023/11/27 05:39:00;;;;;;;1999.90;999.90;;;;;;;;;;5061065;28;20048;-93
2023/11/27 05:41:27;;;;;;;1999.90;999.90;;;;;;;;;;5063394;28;20051;-94
2023/11/27 05:43:53;;;;;;;1999.90;999.90;;;;;;;;;;5059982;28;20041;-92
2023/11/27 05:46:20;;;;;;;1999.90;999.90;;;;;;;;;;5061835;28;20045;-92
2023/11/27 05:48:46;;;;;;;1999.90;999.90;;;;;;;;;;5062937;28;20075;-93
2023/11/27 05:51:16;;;;;;;1999.90;999.90;;;;;;;;;;5062412;28;20056;-91
2023/11/27 05:53:42;;;;;;;1999.90;999.90;;;;;;;;;;5058514;28;20051;-94
2023/11/27 05:56:10;;;;;;;1999.90;999.90;;;;;;;;;;5062907;28;20045;-90
2023/11/27 05:58:36;;;;;;;1999.90;999.90;;;;;;;;;;5063292;28;20044;-93
2023/11/27 06:01:03;;;;;;;1999.90;999.90;;;;;;;;;;5054335;28;20043;-94
2023/11/27 06:03:30;;;;;;;1999.90;999.90;;;;;;;;;;5058820;28;20052;-91
2023/11/27 06:05:56;;;;;;;1999.90;999.90;;;;;;;;;;5062867;28;20071;-88
2023/11/27 06:08:25;;;;;;;1999.90;999.90;;;;;;;;;;5064093;28;20140;-92
2023/11/27 06:10:51;;;;;;;1999.90;999.90;;;;;;;;;;5062498;28;20048;-91
2023/11/27 06:13:18;;;;;;;1999.90;999.90;;;;;;;;;;5060724;28;20080;-88
2023/11/27 06:15:46;;;;;;;1999.90;999.90;;;;;;;;;;5060403;28;20044;-91
2023/11/27 06:18:13;;;;;;;1999.90;999.90;;;;;;;;;;5061241;28;20327;-93
2023/11/27 06:20:39;;;;;;;1999.90;999.90;;;;;;;;;;5063234;28;20098;-92
2023/11/27 06:23:06;;;;;;;1999.90;999.90;;;;;;;;;;5058784;28;21069;-91
2023/11/27 06:25:35;;;;;;;1999.90;999.90;;;;;;;;;;5058374;28;20050;-93
2023/11/27 06:28:02;;;;;;;1999.90;999.90;;;;;;;;;;5060354;28;20523;-89
2023/11/27 06:30:29;;;;;;;1999.90;999.90;;;;;;;;;;5060103;28;20489;-93
2023/11/27 06:32:55;;;;;;;1999.90;999.90;;;;;;;;;;5060003;28;20049;-92
2023/11/27 06:35:22;;;;;;;1999.90;999.90;;;;;;;;;;5059915;28;20126;-92
2023/11/27 06:37:48;;;;;;;1999.90;999.90;;;;;;;;;;5058778;28;20136;-91
2023/11/27 06:40:16;;;;;;;1999.90;999.90;;;;;;;;;;5059402;28;20036;-92
2023/11/27 06:42:45;;;;;;;1999.90;999.90;;;;;;;;;;5058267;28;20053;-90
2023/11/27 06:45:11;;;;;;;1999.90;999.90;;;;;;;;;;5059325;28;20481;-90
2023/11/27 06:47:38;;;;;;;1999.90;999.90;;;;;;;;;;5058887;28;20482;-90
2023/11/27 06:50:06;;;;;;;1999.90;999.90;;;;;;;;;;5059462;28;20133;-92
2023/11/27 06:52:33;;;;;;;1999.90;999.90;;;;;;;;;;5058795;28;20098;-93
2023/11/27 06:54:59;;;;;;;1999.90;999.90;;;;;;;;;;5059410;28;20045;-91
2023/11/27 06:57:26;;;;;;;1999.90;999.90;;;;;;;;;;5059689;28;20072;-91
2023/11/27 06:59:55;;;;;;;1999.90;999.90;;;;;;;;;;5061377;28;20044;-90
2023/11/27 07:02:21;;;;;;;1999.90;999.90;;;;;;;;;;5060130;28;20052;-89
2023/11/27 07:04:48;;;;;;;1999.90;999.90;;;;;;;;;;5058564;28;20053;-89
2023/11/27 07:07:15;;;;;;;1999.90;999.90;;;;;;;;;;5057317;28;20041;-91
2023/11/27 07:09:41;;;;;;;1999.90;999.90;;;;;;;;;;5056455;28;20098;-90
2023/11/27 07:12:08;;;;;;;1999.90;999.90;;;;;;;;;;5061646;28;20053;-88
2023/11/27 07:14:35;;;;;;;1999.90;999.90;;;;;;;;;;5058462;28;20082;-89
2023/11/27 07:17:03;;;;;;;1999.90;999.90;;;;;;;;;;5061116;28;20045;-92
2023/11/27 07:19:29;;;;;;;1999.90;999.90;;;;;;;;;;5061468;28;20113;-90
2023/11/27 07:21:57;;;;;;;1999.90;999.90;;;;;;;;;;5058720;28;20151;-90
2023/11/27 07:24:24;;;;;;;1999.90;999.90;;;;;;;;;;5057621;28;20539;-91
2023/11/27 07:26:50;;;;;;;1999.90;999.90;;;;;;;;;;5058610;28;20052;-91
2023/11/27 07:29:17;;;;;;;1999.90;999.90;;;;;;;;;;5058470;28;20139;-91
2023/11/27 07:31:43;;;;;;;1999.90;999.90;;;;;;;;;;5065234;28;20055;-90
2023/11/27 07:34:11;;;;;;;1999.90;999.90;;;;;;;;;;5063991;28;20510;-92
2023/11/27 07:36:38;;;;;;;1999.90;999.90;;;;;;;;;;5063004;28;20067;-91
2023/11/27 07:39:07;;;;;;;1999.90;999.90;;;;;;;;;;5059321;28;20052;-90
2023/11/27 07:41:33;;;;;;;1999.90;999.90;;;;;;;;;;5059912;28;20059;-93
2023/11/27 07:44:00;;;;;;;1999.90;999.90;;;;;;;;;;5060843;28;20049;-92
2023/11/27 07:46:26;;;;;;;1999.90;999.90;;;;;;;;;;5059279;28;20044;-92
2023/11/27 07:48:53;;;;;;;1999.90;999.90;;;;;;;;;;5057726;28;20530;-92
2023/11/27 07:51:21;;;;;;;1999.90;999.90;;;;;;;;;;5061103;28;20044;-91
2023/11/27 07:53:48;;;;;;;1999.90;999.90;;;;;;;;;;5060152;28;20059;-91
2023/11/27 07:56:15;;;;;;;1999.90;999.90;;;;;;;;;;5059833;28;20136;-90
2023/11/27 07:58:44;;;;;;;1999.90;999.90;;;;;;;;;;5057466;28;20071;-91
2023/11/27 08:01:16;;;;;;;1999.90;999.90;;;;;;;;;;5062833;28;20098;-91
2023/11/27 08:03:42;;;;;;;1999.90;999.90;;;;;;;;;;5059822;28;20048;-92
2023/11/27 08:06:10;;;;;;;1999.90;999.90;;;;;;;;;;5056615;28;20717;-92
2023/11/27 08:08:38;;;;;;;1999.90;999.90;;;;;;;;;;5062156;28;20519;-90
2023/11/27 08:11:05;;;;;;;1999.90;999.90;;;;;;;;;;5059305;28;20060;-92
2023/11/27 08:13:32;;;;;;;1999.90;999.90;;;;;;;;;;5057306;28;20417;-93
2023/11/27 08:15:58;;;;;;;1999.90;999.90;;;;;;;;;;5058546;28;20118;-92
2023/11/27 08:18:25;;;;;;;1999.90;999.90;;;;;;;;;;5060636;28;20057;-91
2023/11/27 08:20:52;;;;;;;1999.90;999.90;;;;;;;;;;5060658;28;20057;-90
2023/11/27 08:23:18;;;;;;;1999.90;999.90;;;;;;;;;;5060047;28;20048;-92
2023/11/27 08:25:47;;;;;;;1999.90;999.90;;;;;;;;;;5063446;28;20140;-89
2023/11/27 08:28:15;;;;;;;1999.90;999.90;;;;;;;;;;5061409;28;20073;-95
2023/11/27 08:30:42;;;;;;;1999.90;999.90;;;;;;;;;;5058679;28;20057;-91
2023/11/27 08:33:09;;;;;;;1999.90;999.90;;;;;;;;;;5066761;28;20046;-93
2023/11/27 08:35:36;;;;;;;1999.90;999.90;;;;;;;;;;5047552;28;20049;-91
2023/11/27 08:38:02;;;;;;;1999.90;999.90;;;;;;;;;;5065514;28;20075;-92
2023/11/27 08:40:29;;;;;;;1999.90;999.90;;;;;;;;;;5059486;28;20467;-93
2023/11/27 08:42:57;;;;;;;1999.90;999.90;;;;;;;;;;5059667;28;20633;-92
2023/11/27 08:45:25;;;;;;;1999.90;999.90;;;;;;;;;;5067610;28;20049;-92
2023/11/27 08:47:51;;;;;;;1999.90;999.90;;;;;;;;;;5065176;28;20056;-87
2023/11/27 08:50:19;;;;;;;1999.90;999.90;;;;;;;;;;5059009;28;20109;-95
2023/11/27 08:52:46;;;;;;;1999.90;999.90;;;;;;;;;;5068076;28;20514;-93
2023/11/27 08:55:18;;;;;;;1999.90;999.90;;;;;;;;;;5063736;28;20048;-91
2023/11/27 08:57:45;;;;;;;1999.90;999.90;;;;;;;;;;5065520;28;20543;-95
2023/11/27 09:00:17;;;;;;;1999.90;999.90;;;;;;;;;;5065040;28;20059;-92
2023/11/27 09:02:44;;;;;;;1999.90;999.90;;;;;;;;;;5060892;28;20041;-92
2023/11/27 09:05:11;;;;;;;1999.90;999.90;;;;;;;;;;5063222;28;20048;-92
2023/11/27 09:07:38;;;;;;;1999.90;999.90;;;;;;;;;;5061551;28;20049;-92
2023/11/27 09:10:05;;;;;;;1999.90;999.90;;;;;;;;;;5063031;28;20048;-93
2023/11/27 09:12:32;;;;;;;1999.90;999.90;;;;;;;;;;5064436;28;20044;-89
2023/11/27 09:14:58;;;;;;;1999.90;999.90;;;;;;;;;;5063302;28;20052;-94
2023/11/27 09:17:26;;;;;;;1999.90;999.90;;;;;;;;;;5062550;28;20064;-93
2023/11/27 09:19:53;;;;;;;1999.90;999.90;;;;;;;;;;5057977;28;20044;-92
2023/11/27 09:22:21;;;;;;;1999.90;999.90;;;;;;;;;;5061722;28;20104;-90
2023/11/27 09:24:47;;;;;;;1999.90;999.90;;;;;;;;;;5060822;28;20099;-90
2023/11/27 09:27:14;;;;;;;1999.90;999.90;;;;;;;;;;5064419;28;20521;-93
2023/11/27 09:29:40;;;;;;;1999.90;999.90;;;;;;;;;;5062402;28;20049;-88
2023/11/27 09:32:07;;;;;;;1999.90;999.90;;;;;;;;;;5057356;28;20059;-91
2023/11/27 09:34:36;;;;;;;1999.90;999.90;;;;;;;;;;5060651;28;20131;-91
2023/11/27 09:37:02;;;;;;;1999.90;999.90;;;;;;;;;;5063513;28;20072;-91
2023/11/27 09:39:29;;;;;;;1999.90;999.90;;;;;;;;;;5059358;28;20044;-91
2023/11/27 09:41:56;;;;;;;1999.90;999.90;;;;;;;;;;5065396;28;20095;-89
2023/11/27 09:44:22;;;;;;;1999.90;999.90;;;;;;;;;;5060305;28;20037;-90
2023/11/27 09:46:51;;;;;;;1999.90;999.90;;;;;;;;;;5060161;28;20051;-88
2023/11/27 09:49:23;;;;;;;1999.90;999.90;;;;;;;;;;5062699;28;20524;-92
2023/11/27 09:51:52;;;;;;;1999.90;999.90;;;;;;;;;;5058113;28;20058;-90
2023/11/27 09:54:22;;;;;;;1999.90;999.90;;;;;;;;;;5063203;28;20072;-90
2023/11/27 09:56:49;;;;;;;1999.90;999.90;;;;;;;;;;5057640;28;20040;-91
2023/11/27 09:59:16;;;;;;;1999.90;999.90;;;;;;;;;;5062285;28;20056;-92
2023/11/27 10:01:43;;;;;;;1999.90;999.90;;;;;;;;;;5061299;28;20060;-90
2023/11/27 10:04:11;;;;;;;1999.90;999.90;;;;;;;;;;5063977;28;20057;-90
2023/11/27 10:06:41;;;;;;;1999.90;999.90;;;;;;;;;;5062856;28;20796;-88
2023/11/27 10:09:13;;;;;;;1999.90;999.90;;;;;;;;;;5060158;28;20071;-92
2023/11/27 10:11:40;;;;;;;1999.90;999.90;;;;;;;;;;5065056;28;20118;-88
2023/11/27 10:14:08;;;;;;;1999.90;999.90;;;;;;;;;;5062051;28;20417;-86
2023/11/27 10:16:35;;;;;;;1999.90;999.90;;;;;;;;;;5058608;28;20083;-91
2023/11/27 10:19:06;;;;;;;1999.90;999.90;;;;;;;;;;5063155;28;20048;-89
2023/11/27 10:21:33;;;;;;;1999.90;999.90;;;;;;;;;;5059139;28;20507;-87
2023/11/27 10:24:01;;;;;;;1999.90;999.90;;;;;;;;;;5065758;28;20459;-90
2023/11/27 10:26:30;;;;;;;1999.90;999.90;;;;;;;;;;5061887;28;20052;-92
2023/11/27 10:28:57;;;;;;;1999.90;999.90;;;;;;;;;;5058623;28;20053;-91
2023/11/27 10:31:24;;;;;;;1999.90;999.90;;;;;;;;;;5062375;28;20140;-92
2023/11/27 10:33:51;;;;;;;1999.90;999.90;;;;;;;;;;5057849;28;20074;-89
2023/11/27 10:36:23;;;;;;;1999.90;999.90;;;;;;;;;;5060421;28;20063;-91
2023/11/27 10:39:00;;;;;;;1999.90;999.90;;;;;;;;;;5057986;28;20076;-91
2023/11/27 10:41:26;;;;;;;1999.90;999.90;;;;;;;;;;5059571;28;20059;-87
2023/11/27 10:43:56;;;;;;;1999.90;999.90;;;;;;;;;;5060618;28;20520;-90
2023/11/27 10:46:22;;;;;;;1999.90;999.90;;;;;;;;;;5059145;28;20485;-88
2023/11/27 10:48:49;;;;;;;1999.90;999.90;;;;;;;;;;5058069;28;20049;-89
2023/11/27 10:51:17;;;;;;;1999.90;999.90;;;;;;;;;;5061015;28;20413;-89
2023/11/27 10:53:46;;;;;;;1999.90;999.90;;;;;;;;;;5058872;28;20067;-94
2023/11/27 10:56:14;;;;;;;1999.90;999.90;;;;;;;;;;5058946;28;20057;-87
2023/11/27 10:58:40;;;;;;;1999.90;999.90;;;;;;;;;;5059980;28;20049;-93
2023/11/27 11:01:09;;;;;;;1999.90;999.90;;;;;;;;;;5055669;28;20064;-89
2023/11/27 11:03:37;;;;;;;1999.90;999.90;;;;;;;;;;5059774;28;20408;-87
2023/11/27 11:06:05;;;;;;;1999.90;999.90;;;;;;;;;;5059204;28;20041;-89
2023/11/27 11:08:33;;;;;;;1999.90;999.90;;;;;;;;;;5060752;28;20052;-89
2023/11/27 11:11:01;;;;;;;1999.90;999.90;;;;;;;;;;5061430;28;20464;-88
2023/11/27 11:13:30;;;;;;;1999.90;999.90;;;;;;;;;;5059703;28;20079;-91
2023/11/27 11:16:01;;;;;;;1999.90;999.90;;;;;;;;;;5063232;28;20060;-90
2023/11/27 11:18:36;;;;;;;1999.90;999.90;;;;;;;;;;5057563;28;20460;-88
2023/11/27 11:21:29;;;;;;;1999.90;999.90;;;;;;;;;;5056662;28;20055;-89
2023/11/27 11:24:01;;;;;;;1999.90;999.90;;;;;;;;;;5053729;28;20505;-90
2023/11/27 11:26:38;;;;;;;1999.90;999.90;;;;;;;;;;5061897;28;20064;-91
2023/11/27 11:29:12;;;;;;;1999.90;999.90;;;;;;;;;;5060088;28;20110;-90
2023/11/27 11:31:43;;;;;;;1999.90;999.90;;;;;;;;;;5059332;28;20052;-91
2023/11/27 11:34:20;;;;;;;1999.90;999.90;;;;;;;;;;5059851;28;20044;-92
2023/11/27 11:36:52;;;;;;;1999.90;999.90;;;;;;;;;;5060493;28;20137;-90
2023/11/27 11:39:21;;;;;;;1999.90;999.90;;;;;;;;;;5060935;28;20056;-88
2023/11/27 11:41:52;;;;;;;1999.90;999.90;;;;;;;;;;5054611;28;20106;-89
2023/11/27 11:44:21;;;;;;;1999.90;999.90;;;;;;;;;;5057786;28;20048;-91
2023/11/27 11:46:47;;;;;;;1999.90;999.90;;;;;;;;;;5059557;28;20057;-93
2023/11/27 11:49:24;;;;;;;1999.90;999.90;;;;;;;;;;5061431;28;20390;-93
2023/11/27 11:52:02;;;;;;;1999.90;999.90;;;;;;;;;;5059461;28;20456;-94
2023/11/27 11:54:32;;;;;;;1999.90;999.90;;;;;;;;;;5063419;28;20053;-93
2023/11/27 11:57:12;;;;;;;1999.90;999.90;;;;;;;;;;5054994;28;20045;-94
2023/11/27 11:59:40;;;;;;;1999.90;999.90;;;;;;;;;;5061048;28;20045;-91
2023/11/27 12:02:12;;;;;;;1999.90;999.90;;;;;;;;;;5060827;28;20559;-92
2023/11/27 12:04:41;;;;;;;1999.90;999.90;;;;;;;;;;5062590;28;20045;-92
2023/11/27 12:07:08;;;;;;;1999.90;999.90;;;;;;;;;;5060099;28;20056;-95
2023/11/27 12:09:35;;;;;;;1999.90;999.90;;;;;;;;;;5059040;28;20057;-93
2023/11/27 12:12:01;;;;;;;1999.90;999.90;;;;;;;;;;5056426;28;20036;-90
2023/11/27 12:14:32;;;;;;;1999.90;999.90;;;;;;;;;;5059494;28;20375;-93
2023/11/27 12:16:59;;;;;;;1999.90;999.90;;;;;;;;;;5061348;28;20041;-92
2023/11/27 12:19:25;;;;;;;1999.90;999.90;;;;;;;;;;5065628;28;20143;-90
2023/11/27 12:21:56;;;;;;;1999.90;999.90;;;;;;;;;;5068986;28;20052;-95
2023/11/27 12:24:22;;;;;;;1999.90;999.90;;;;;;;;;;5068779;28;20109;-92
2023/11/27 12:26:51;;;;;;;1999.90;999.90;;;;;;;;;;5070942;28;20044;-93
2023/11/27 12:29:19;;;;;;;1999.90;999.90;;;;;;;;;;5064389;28;20067;-93
2023/11/27 12:31:46;;;;;;;1999.90;999.90;;;;;;;;;;5059163;28;20057;-94
2023/11/27 12:34:15;;;;;;;1999.90;999.90;;;;;;;;;;5064073;28;20044;-93
2023/11/27 12:36:44;;;;;;;1999.90;999.90;;;;;;;;;;5063664;28;20041;-91
2023/11/27 12:39:16;;;;;;;1999.90;999.90;;;;;;;;;;5064405;28;20041;-92
2023/11/27 12:41:46;;;;;;;1999.90;999.90;;;;;;;;;;5062557;28;20139;-90
2023/11/27 12:44:15;;;;;;;1999.90;999.90;;;;;;;;;;5065491;28;20049;-92
2023/11/27 12:46:48;;;;;;;1999.90;999.90;;;;;;;;;;5062258;28;20485;-92
2023/11/27 12:49:17;;;;;;;1999.90;999.90;;;;;;;;;;5054403;28;20131;-93
2023/11/27 12:51:45;;;;;;;1999.90;999.90;;;;;;;;;;5063187;28;20044;-94
2023/11/27 12:54:18;;;;;;;1999.90;999.90;;;;;;;;;;5067035;28;20124;-91
2023/11/27 12:56:51;;;;;;;1999.90;999.90;;;;;;;;;;5063781;28;20052;-93
2023/11/27 12:59:18;;;;;;;1999.90;999.90;;;;;;;;;;5059287;28;20045;-93
2023/11/27 13:01:58;;;;;;;1999.90;999.90;;;;;;;;;;5061760;28;20447;-94
2023/11/27 13:04:29;;;;;;;1999.90;999.90;;;;;;;;;;5062455;28;20063;-92
2023/11/27 13:06:57;;;;;;;1999.90;999.90;;;;;;;;;;5063086;28;20092;-89
2023/11/27 13:09:26;;;;;;;1999.90;999.90;;;;;;;;;;5061992;28;20068;-92
2023/11/27 13:11:52;;;;;;;1999.90;999.90;;;;;;;;;;5060810;28;20047;-89
2023/11/27 13:14:19;;;;;;;1999.90;999.90;;;;;;;;;;5060809;28;20113;-93
2023/11/27 13:16:47;;;;;;;1999.90;999.90;;;;;;;;;;5060022;28;20052;-90
2023/11/27 13:19:13;;;;;;;1999.90;999.90;;;;;;;;;;5062671;28;20048;-88
2023/11/27 13:21:40;;;;;;;1999.90;999.90;;;;;;;;;;5059282;28;20136;-90
2023/11/27 13:24:07;;;;;;;1999.90;999.90;;;;;;;;;;5053040;28;20053;-91
2023/11/27 13:26:36;;;;;;;1999.90;999.90;;;;;;;;;;5060959;28;20094;-92
2023/11/27 13:29:03;;;;;;;1999.90;999.90;;;;;;;;;;5064767;28;20550;-92
2023/11/27 13:31:33;;;;;;;1999.90;999.90;;;;;;;;;;5061553;28;20140;-93
2023/11/27 13:34:06;;;;;;;1999.90;999.90;;;;;;;;;;5057698;28;20549;-87
2023/11/27 13:36:33;;;;;;;1999.90;999.90;;;;;;;;;;5056398;28;20041;-89
2023/11/27 13:39:07;;;;;;;1999.90;999.90;;;;;;;;;;5058808;28;20091;-92
2023/11/27 13:41:35;;;;;;;1999.90;999.90;;;;;;;;;;5059070;28;20152;-91
2023/11/27 13:44:03;;;;;;;1999.90;999.90;;;;;;;;;;5063636;28;20060;-91